Time;durP1;ratioP1;P1;durP2;ratioP2;P2;SDS_P1;SDS_P2;PMS_P1;PMS_P2;Temp;Humidity;BMP_temperature;BMP_pressure;BME280_temperature;BME280_humidity;BME280_pressure;Samples;Min_cycle;Max_cycle;Signal;HPM_P1;HPM_P2
2022/07/11 00:01:25;;;;;;;;;;;;;;;;;;4994955;28;136480;-61
2022/07/11 00:03:52;;;;;;;;;;;;;;;;;;5006027;27;133708;-61
2022/07/11 00:06:18;;;;;;;;;;;;;;;;;;5004371;28;129629;-61
2022/07/11 00:08:44;;;;;;;;;;;;;;;;;;5007469;28;135423;-61
2022/07/11 00:11:11;;;;;;;;;;;;;;;;;;5007491;28;120339;-60
2022/07/11 00:13:38;;;;;;;;;;;;;;;;;;5006159;28;136514;-60
2022/07/11 00:16:04;;;;;;;;;;;;;;;;;;5003970;28;136210;-61
2022/07/11 00:18:37;;;;;;;;;;;;;;;;;;5004134;27;128472;-61
2022/07/11 00:21:03;;;;;;;;;;;;;;;;;;5003380;27;136464;-61
2022/07/11 00:23:29;;;;;;;;;;;;;;;;;;5004249;28;137607;-61
2022/07/11 00:25:56;;;;;;;;;;;;;;;;;;5004384;28;121016;-61
2022/07/11 00:28:22;;;;;;;;;;;;;;;;;;4999885;28;122022;-61
2022/07/11 00:30:48;;;;;;;;;;;;;;;;;;4996737;28;131843;-62
2022/07/11 00:33:14;;;;;;;;;;;;;;;;;;5009870;28;129249;-60
2022/07/11 00:35:41;;;;;;;;;;;;;;;;;;5004307;27;138063;-61
2022/07/11 00:38:07;;;;;;;;;;;;;;;;;;5005584;27;130438;-61
2022/07/11 00:40:33;;;;;;;;;;;;;;;;;;5006261;28;135102;-61
2022/07/11 00:43:00;;;;;;;;;;;;;;;;;;5004635;28;137293;-61
2022/07/11 00:45:26;;;;;;;;;;;;;;;;;;5002475;28;129558;-61
2022/07/11 00:47:52;;;;;;;;;;;;;;;;;;5002597;28;132934;-61
2022/07/11 00:50:19;;;;;;;;;;;;;;;;;;5005510;28;130651;-62
2022/07/11 00:52:45;;;;;;;;;;;;;;;;;;5006945;28;106147;-62
2022/07/11 00:55:11;;;;;;;;;;;;;;;;;;5009197;28;137245;-62
2022/07/11 00:57:38;;;;;;;;;;;;;;;;;;5004107;28;127884;-62
2022/07/11 01:00:04;;;;;;;;;;;;;;;;;;5001336;28;135794;-62
2022/07/11 01:02:30;;;;;;;;;;;;;;;;;;4994316;22;135709;-62
2022/07/11 01:04:56;;;;;;;;;;;;;;;;;;4948931;28;122787;-63
2022/07/11 01:07:23;;;;;;;;;;;;;;;;;;4966348;28;133916;-62
2022/07/11 01:09:49;;;;;;;;;;;;;;;;;;4967092;28;137647;-62
2022/07/11 01:12:15;;;;;;;;;;;;;;;;;;4960752;28;126612;-62
2022/07/11 01:14:42;;;;;;;;;;;;;;;;;;4967561;28;134026;-62
2022/07/11 01:17:08;;;;;;;;;;;;;;;;;;4972497;28;135956;-62
2022/07/11 01:19:34;;;;;;;;;;;;;;;;;;4968287;28;134838;-62
2022/07/11 01:22:01;;;;;;;;;;;;;;;;;;4970144;28;137297;-61
2022/07/11 01:24:27;;;;;;;;;;;;;;;;;;4967792;28;126410;-61
2022/07/11 01:26:53;;;;;;;;;;;;;;;;;;4967618;28;136340;-61
2022/07/11 01:29:20;;;;;;;;;;;;;;;;;;4968237;28;137966;-64
2022/07/11 01:31:46;;;;;;;;;;;;;;;;;;4948874;28;127340;-60
2022/07/11 01:34:12;;;;;;;;;;;;;;;;;;4970288;28;136102;-60
2022/07/11 01:36:39;;;;;;;;;;;;;;;;;;4975909;28;107318;-61
2022/07/11 01:39:05;;;;;;;;;;;;;;;;;;4972344;28;136596;-60
2022/07/11 01:41:31;;;;;;;;;;;;;;;;;;4966697;28;138210;-61
2022/07/11 01:43:58;;;;;;;;;;;;;;;;;;4947104;28;128758;-60
2022/07/11 01:46:24;;;;;;;;;;;;;;;;;;4969745;28;125808;-61
2022/07/11 01:48:50;;;;;;;;;;;;;;;;;;4973872;28;136958;-61
2022/07/11 01:51:17;;;;;;;;;;;;;;;;;;4973659;28;130384;-60
2022/07/11 01:53:43;;;;;;;;;;;;;;;;;;4973521;28;106692;-61
2022/07/11 01:56:10;;;;;;;;;;;;;;;;;;4970599;28;136141;-61
2022/07/11 01:58:46;;;;;;;;;;;;;;;;;;4969649;28;128638;-61
2022/07/11 02:01:13;;;;;;;;;;;;;;;;;;4966473;28;137376;-61
2022/07/11 02:03:39;;;;;;;;;;;;;;;;;;4968772;28;128552;-60
2022/07/11 02:06:06;;;;;;;;;;;;;;;;;;4969529;28;136311;-61
2022/07/11 02:08:32;;;;;;;;;;;;;;;;;;4955097;28;137331;-61
2022/07/11 02:10:58;;;;;;;;;;;;;;;;;;4967796;28;128076;-61
2022/07/11 02:13:25;;;;;;;;;;;;;;;;;;4967345;28;134249;-61
2022/07/11 02:15:52;;;;;;;;;;;;;;;;;;4965227;28;137825;-61
2022/07/11 02:18:18;;;;;;;;;;;;;;;;;;4968933;28;125988;-63
2022/07/11 02:20:51;;;;;;;;;;;;;;;;;;4965389;28;136629;-61
2022/07/11 02:23:17;;;;;;;;;;;;;;;;;;4966924;28;127117;-64
2022/07/11 02:25:44;;;;;;;;;;;;;;;;;;4967869;28;136503;-61
2022/07/11 02:28:10;;;;;;;;;;;;;;;;;;4968776;28;138122;-60
2022/07/11 02:30:36;;;;;;;;;;;;;;;;;;4967297;28;129427;-61
2022/07/11 02:33:03;;;;;;;;;;;;;;;;;;4967400;28;137202;-62
2022/07/11 02:35:29;;;;;;;;;;;;;;;;;;4968014;28;135641;-61
2022/07/11 02:37:55;;;;;;;;;;;;;;;;;;4965383;28;127010;-61
2022/07/11 02:40:21;;;;;;;;;;;;;;;;;;4968551;28;136799;-60
2022/07/11 02:42:48;;;;;;;;;;;;;;;;;;4970743;28;137853;-64
2022/07/11 02:45:14;;;;;;;;;;;;;;;;;;4968425;28;132995;-60
2022/07/11 02:47:42;;;;;;;;;;;;;;;;;;4964311;28;137437;-61
2022/07/11 02:50:08;;;;;;;;;;;;;;;;;;4966219;28;128117;-61
2022/07/11 02:52:34;;;;;;;;;;;;;;;;;;4967543;28;135720;-61
2022/07/11 02:55:01;;;;;;;;;;;;;;;;;;4966742;28;134083;-61
2022/07/11 02:57:27;;;;;;;;;;;;;;;;;;4948740;28;127295;-61
2022/07/11 02:59:53;;;;;;;;;;;;;;;;;;4956013;28;136336;-61
2022/07/11 03:02:19;;;;;;;;;;;;;;;;;;4967540;28;107578;-62
2022/07/11 03:04:46;;;;;;;;;;;;;;;;;;4970616;28;129941;-61
2022/07/11 03:07:12;;;;;;;;;;;;;;;;;;4967462;28;135821;-61
2022/07/11 03:09:38;;;;;;;;;;;;;;;;;;4966643;28;128096;-61
2022/07/11 03:12:05;;;;;;;;;;;;;;;;;;4964862;28;128423;-61
2022/07/11 03:14:31;;;;;;;;;;;;;;;;;;4967304;28;136179;-61
2022/07/11 03:16:57;;;;;;;;;;;;;;;;;;4965372;28;106511;-61
2022/07/11 03:19:24;;;;;;;;;;;;;;;;;;4965931;28;135312;-61
2022/07/11 03:21:50;;;;;;;;;;;;;;;;;;4966864;28;138323;-62
2022/07/11 03:24:17;;;;;;;;;;;;;;;;;;4968911;28;126199;-61
2022/07/11 03:26:43;;;;;;;;;;;;;;;;;;4970635;28;135244;-61
2022/07/11 03:29:10;;;;;;;;;;;;;;;;;;4966306;28;129443;-61
2022/07/11 03:31:36;;;;;;;;;;;;;;;;;;4966394;28;131669;-61
2022/07/11 03:34:02;;;;;;;;;;;;;;;;;;4966021;28;137371;-61
2022/07/11 03:36:28;;;;;;;;;;;;;;;;;;4949116;28;129100;-61
2022/07/11 03:38:55;;;;;;;;;;;;;;;;;;4966842;28;137492;-61
2022/07/11 03:41:21;;;;;;;;;;;;;;;;;;4966334;28;138570;-61
2022/07/11 03:43:48;;;;;;;;;;;;;;;;;;4967207;28;128657;-65
2022/07/11 03:46:14;;;;;;;;;;;;;;;;;;4968947;28;137214;-61
2022/07/11 03:48:41;;;;;;;;;;;;;;;;;;4966915;28;129567;-62
2022/07/11 03:51:07;;;;;;;;;;;;;;;;;;4965624;28;134817;-61
2022/07/11 03:53:33;;;;;;;;;;;;;;;;;;4963217;28;137286;-61
2022/07/11 03:55:59;;;;;;;;;;;;;;;;;;4964871;28;129740;-62
2022/07/11 03:58:26;;;;;;;;;;;;;;;;;;4971912;28;135896;-61
2022/07/11 04:00:52;;;;;;;;;;;;;;;;;;4973421;28;137547;-61
2022/07/11 04:03:18;;;;;;;;;;;;;;;;;;4967133;28;128868;-62
2022/07/11 04:05:45;;;;;;;;;;;;;;;;;;4977693;28;122788;-61
2022/07/11 04:08:11;;;;;;;;;;;;;;;;;;4979254;28;136140;-61
2022/07/11 04:10:37;;;;;;;;;;;;;;;;;;4976376;28;137263;-61
2022/07/11 04:13:03;;;;;;;;;;;;;;;;;;4947133;28;138040;-61
2022/07/11 04:15:30;;;;;;;;;;;;;;;;;;4975836;28;129314;-61
2022/07/11 04:17:56;;;;;;;;;;;;;;;;;;4978129;28;109820;-61
2022/07/11 04:20:22;;;;;;;;;;;;;;;;;;4976663;28;116888;-61
2022/07/11 04:22:49;;;;;;;;;;;;;;;;;;4969581;28;131257;-62
2022/07/11 04:25:15;;;;;;;;;;;;;;;;;;4974134;28;106930;-61
2022/07/11 04:27:41;;;;;;;;;;;;;;;;;;4976774;28;137613;-61
2022/07/11 04:30:08;;;;;;;;;;;;;;;;;;4975186;28;130123;-61
2022/07/11 04:32:35;;;;;;;;;;;;;;;;;;4972487;28;119281;-61
2022/07/11 04:35:02;;;;;;;;;;;;;;;;;;4982652;28;124925;-61
2022/07/11 04:37:28;;;;;;;;;;;;;;;;;;4974026;28;135217;-62
2022/07/11 04:39:54;;;;;;;;;;;;;;;;;;4970285;28;134908;-61
2022/07/11 04:42:20;;;;;;;;;;;;;;;;;;4979314;28;128212;-62
2022/07/11 04:44:47;;;;;;;;;;;;;;;;;;4978407;28;135758;-61
2022/07/11 04:47:13;;;;;;;;;;;;;;;;;;4981958;28;135844;-61
2022/07/11 04:49:39;;;;;;;;;;;;;;;;;;4967372;28;123606;-61
2022/07/11 04:52:07;;;;;;;;;;;;;;;;;;4970981;28;136462;-61
2022/07/11 04:54:33;;;;;;;;;;;;;;;;;;4980195;28;127370;-61
2022/07/11 04:57:00;;;;;;;;;;;;;;;;;;4974365;28;136743;-61
2022/07/11 04:59:26;;;;;;;;;;;;;;;;;;4968923;28;136348;-61
2022/07/11 05:01:52;;;;;;;;;;;;;;;;;;4967027;28;130273;-61
2022/07/11 05:04:19;;;;;;;;;;;;;;;;;;4967044;28;137227;-62
2022/07/11 05:06:45;;;;;;;;;;;;;;;;;;4964595;28;132525;-61
2022/07/11 05:09:12;;;;;;;;;;;;;;;;;;4966420;28;130003;-61
2022/07/11 05:11:39;;;;;;;;;;;;;;;;;;4972385;28;135311;-61
2022/07/11 05:14:05;;;;;;;;;;;;;;;;;;4982301;28;137910;-61
2022/07/11 05:16:31;;;;;;;;;;;;;;;;;;4974858;28;136626;-61
2022/07/11 05:18:57;;;;;;;;;;;;;;;;;;4980445;28;136903;-61
2022/07/11 05:21:24;;;;;;;;;;;;;;;;;;4959805;28;129354;-61
2022/07/11 05:23:50;;;;;;;;;;;;;;;;;;4976743;28;136991;-61
2022/07/11 05:26:16;;;;;;;;;;;;;;;;;;4980032;28;131759;-61
2022/07/11 05:28:43;;;;;;;;;;;;;;;;;;4981425;28;130132;-65
2022/07/11 05:31:10;;;;;;;;;;;;;;;;;;4968399;28;128455;-61
2022/07/11 05:33:37;;;;;;;;;;;;;;;;;;4979561;28;126749;-61
2022/07/11 05:36:03;;;;;;;;;;;;;;;;;;4976244;28;128722;-61
2022/07/11 05:38:29;;;;;;;;;;;;;;;;;;4971785;28;135752;-62
2022/07/11 05:40:55;;;;;;;;;;;;;;;;;;4973886;28;129212;-61
2022/07/11 05:43:23;;;;;;;;;;;;;;;;;;4981229;28;137739;-61
2022/07/11 05:45:49;;;;;;;;;;;;;;;;;;4975321;28;138993;-62
2022/07/11 05:48:15;;;;;;;;;;;;;;;;;;4980670;28;130468;-61
2022/07/11 05:50:41;;;;;;;;;;;;;;;;;;4974347;28;136839;-61
2022/07/11 05:53:09;;;;;;;;;;;;;;;;;;4969937;28;120284;-62
2022/07/11 05:55:35;;;;;;;;;;;;;;;;;;4978396;28;129948;-61
2022/07/11 05:58:01;;;;;;;;;;;;;;;;;;4968630;28;137205;-61
2022/07/11 06:00:28;;;;;;;;;;;;;;;;;;4977725;28;125807;-61
2022/07/11 06:02:54;;;;;;;;;;;;;;;;;;4970926;28;135466;-61
2022/07/11 06:05:21;;;;;;;;;;;;;;;;;;4972157;28;135312;-62
2022/07/11 06:10:33;;;;;;;;;;;;;;;;;;4970950;28;134808;-61
2022/07/11 06:12:59;;;;;;;;;;;;;;;;;;4943320;28;109242;-61
2022/07/11 06:15:25;;;;;;;;;;;;;;;;;;4968950;28;125887;-61
2022/07/11 06:17:52;;;;;;;;;;;;;;;;;;4980009;28;106906;-61
2022/07/11 06:20:18;;;;;;;;;;;;;;;;;;4976480;28;128646;-62
2022/07/11 06:22:45;;;;;;;;;;;;;;;;;;4965045;28;137310;-61
2022/07/11 06:25:11;;;;;;;;;;;;;;;;;;4968921;28;137122;-61
2022/07/11 06:27:37;;;;;;;;;;;;;;;;;;4980023;28;127860;-62
2022/07/11 06:30:04;;;;;;;;;;;;;;;;;;4978789;28;137392;-61
2022/07/11 06:32:31;;;;;;;;;;;;;;;;;;4971851;28;127383;-61
2022/07/11 06:34:57;;;;;;;;;;;;;;;;;;4976835;28;106357;-61
2022/07/11 06:37:23;;;;;;;;;;;;;;;;;;4969083;28;137165;-61
2022/07/11 06:39:50;;;;;;;;;;;;;;;;;;4981751;28;137270;-61
2022/07/11 06:42:16;;;;;;;;;;;;;;;;;;4969529;28;136154;-62
2022/07/11 06:44:46;;;;;;;;;;;;;;;;;;4974201;28;133092;-61
2022/07/11 06:47:13;;;;;;;;;;;;;;;;;;4969825;28;106937;-62
2022/07/11 06:49:39;;;;;;;;;;;;;;;;;;4964021;28;123911;-61
2022/07/11 06:52:05;;;;;;;;;;;;;;;;;;4964177;28;136951;-62
2022/07/11 06:54:32;;;;;;;;;;;;;;;;;;4972546;28;129407;-61
2022/07/11 06:56:58;;;;;;;;;;;;;;;;;;4969617;28;129275;-62
2022/07/11 06:59:24;;;;;;;;;;;;;;;;;;4975753;28;120555;-64
2022/07/11 07:01:50;;;;;;;;;;;;;;;;;;4974018;28;128549;-63
2022/07/11 07:04:17;;;;;;;;;;;;;;;;;;4975174;28;137840;-62
2022/07/11 07:06:43;;;;;;;;;;;;;;;;;;4976135;28;107471;-62
2022/07/11 07:09:10;;;;;;;;;;;;;;;;;;4976054;28;139095;-62
2022/07/11 07:11:36;;;;;;;;;;;;;;;;;;4981603;28;135602;-62
2022/07/11 07:14:02;;;;;;;;;;;;;;;;;;4953556;28;127471;-62
2022/07/11 07:16:29;;;;;;;;;;;;;;;;;;4980932;28;132854;-62
2022/07/11 07:18:55;;;;;;;;;;;;;;;;;;4967757;28;136957;-63
2022/07/11 07:21:22;;;;;;;;;;;;;;;;;;4973623;28;114283;-61
2022/07/11 07:23:48;;;;;;;;;;;;;;;;;;4972314;28;131631;-65
2022/07/11 07:26:15;;;;;;;;;;;;;;;;;;4972082;28;112937;-63
2022/07/11 07:28:41;;;;;;;;;;;;;;;;;;4973652;28;134170;-63
2022/07/11 07:31:11;;;;;;;;;;;;;;;;;;4973790;28;128754;-63
2022/07/11 07:33:41;;;;;;;;;;;;;;;;;;4974275;28;129062;-62
2022/07/11 07:36:11;;;;;;;;;;;;;;;;;;4962812;28;110478;-62
2022/07/11 07:38:38;;;;;;;;;;;;;;;;;;4960085;28;136004;-62
2022/07/11 07:41:05;;;;;;;;;;;;;;;;;;4976576;28;128414;-61
2022/07/11 07:43:31;;;;;;;;;;;;;;;;;;4958685;28;137810;-62
2022/07/11 07:45:58;;;;;;;;;;;;;;;;;;4968144;28;106439;-62
2022/07/11 07:48:24;;;;;;;;;;;;;;;;;;4966061;28;133064;-63
2022/07/11 07:50:54;;;;;;;;;;;;;;;;;;4972664;28;135990;-63
2022/07/11 07:53:20;;;;;;;;;;;;;;;;;;4963775;28;129365;-63
2022/07/11 07:55:46;;;;;;;;;;;;;;;;;;4965590;28;134405;-63
2022/07/11 07:58:13;;;;;;;;;;;;;;;;;;4963117;28;108107;-62
2022/07/11 08:03:24;;;;;;;;;;;;;;;;;;4963735;28;137180;-63
2022/07/11 08:05:50;;;;;;;;;;;;;;;;;;4970071;28;136761;-63
2022/07/11 08:08:17;;;;;;;;;;;;;;;;;;4966189;28;136578;-62
2022/07/11 08:10:43;;;;;;;;;;;;;;;;;;4965261;28;138413;-63
2022/07/11 08:13:09;;;;;;;;;;;;;;;;;;4964095;28;127954;-66
2022/07/11 08:15:36;;;;;;;;;;;;;;;;;;4944401;28;136200;-63
2022/07/11 08:18:02;;;;;;;;;;;;;;;;;;4939885;28;135883;-64
2022/07/11 08:20:28;;;;;;;;;;;;;;;;;;4964368;28;130043;-63
2022/07/11 08:22:54;;;;;;;;;;;;;;;;;;4964729;28;107173;-62
2022/07/11 08:25:21;;;;;;;;;;;;;;;;;;4964526;28;140195;-62
2022/07/11 08:27:47;;;;;;;;;;;;;;;;;;4969892;28;122360;-62
2022/07/11 08:30:13;;;;;;;;;;;;;;;;;;4965224;28;126080;-62
2022/07/11 08:32:40;;;;;;;;;;;;;;;;;;4961437;28;130327;-62
2022/07/11 08:35:07;;;;;;;;;;;;;;;;;;4961179;28;136779;-62
2022/07/11 08:37:33;;;;;;;;;;;;;;;;;;4966128;28;127202;-62
2022/07/11 08:39:59;;;;;;;;;;;;;;;;;;4966254;28;129512;-62
2022/07/11 08:42:26;;;;;;;;;;;;;;;;;;4961216;28;138002;-62
2022/07/11 08:44:52;;;;;;;;;;;;;;;;;;4951410;28;136158;-62
2022/07/11 08:47:18;;;;;;;;;;;;;;;;;;4942912;28;128193;-62
2022/07/11 08:49:45;;;;;;;;;;;;;;;;;;4970337;28;127967;-61
2022/07/11 08:52:11;;;;;;;;;;;;;;;;;;4965306;28;129300;-61
2022/07/11 08:54:38;;;;;;;;;;;;;;;;;;4964977;28;132771;-61
2022/07/11 08:57:05;;;;;;;;;;;;;;;;;;4965916;28;106609;-62
2022/07/11 08:59:31;;;;;;;;;;;;;;;;;;4953565;28;129914;-62
2022/07/11 09:01:58;;;;;;;;;;;;;;;;;;4965110;28;135650;-62
2022/07/11 09:04:24;;;;;;;;;;;;;;;;;;4966833;28;115300;-62
2022/07/11 09:06:51;;;;;;;;;;;;;;;;;;4964413;28;129530;-62
2022/07/11 09:09:17;;;;;;;;;;;;;;;;;;4961893;28;136917;-62
2022/07/11 09:11:43;;;;;;;;;;;;;;;;;;4967445;28;137336;-61
2022/07/11 09:14:10;;;;;;;;;;;;;;;;;;4965593;28;132725;-61
2022/07/11 09:16:36;;;;;;;;;;;;;;;;;;4964493;28;138097;-61
2022/07/11 09:19:03;;;;;;;;;;;;;;;;;;4961021;28;129263;-62
2022/07/11 09:26:59;;;;;;;;;;;;;;;;;;4964312;28;129908;-61
2022/07/11 09:29:27;;;;;;;;;;;;;;;;;;4963293;28;136787;-62
2022/07/11 09:31:53;;;;;;;;;;;;;;;;;;4946365;28;135969;-62
2022/07/11 09:34:19;;;;;;;;;;;;;;;;;;4969038;28;128255;-62
2022/07/11 09:36:46;;;;;;;;;;;;;;;;;;4957276;28;133054;-61
2022/07/11 09:39:12;;;;;;;;;;;;;;;;;;4964573;28;129398;-62
2022/07/11 09:41:39;;;;;;;;;;;;;;;;;;4964089;28;136114;-62
2022/07/11 09:44:05;;;;;;;;;;;;;;;;;;4963991;28;137793;-62
2022/07/11 09:46:31;;;;;;;;;;;;;;;;;;4964444;28;112698;-61
2022/07/11 09:49:03;;;;;;;;;;;;;;;;;;4963962;28;136540;-62
2022/07/11 09:51:29;;;;;;;;;;;;;;;;;;4963656;28;136732;-62
2022/07/11 09:53:56;;;;;;;;;;;;;;;;;;4967029;28;122033;-61
2022/07/11 09:56:23;;;;;;;;;;;;;;;;;;4965335;28;135918;-61
2022/07/11 09:59:09;;;;;;;;;;;;;;;;;;4944764;28;107011;-62
2022/07/11 10:01:35;;;;;;;;;;;;;;;;;;4968537;28;127669;-61
2022/07/11 10:04:02;;;;;;;;;;;;;;;;;;4966082;28;130750;-61
2022/07/11 10:06:28;;;;;;;;;;;;;;;;;;4961261;28;106904;-61
2022/07/11 10:08:55;;;;;;;;;;;;;;;;;;4969443;28;123735;-63
2022/07/11 10:11:21;;;;;;;;;;;;;;;;;;4967310;28;137889;-62
2022/07/11 10:13:48;;;;;;;;;;;;;;;;;;4964578;28;127749;-61
2022/07/11 10:16:14;;;;;;;;;;;;;;;;;;4962126;28;133222;-61
2022/07/11 10:18:41;;;;;;;;;;;;;;;;;;4968785;28;126885;-61
2022/07/11 10:21:07;;;;;;;;;;;;;;;;;;4966768;28;136415;-61
2022/07/11 10:23:33;;;;;;;;;;;;;;;;;;4964350;28;135768;-62
2022/07/11 10:26:00;;;;;;;;;;;;;;;;;;4964232;28;127040;-64
2022/07/11 10:28:26;;;;;;;;;;;;;;;;;;4968028;28;131484;-63
2022/07/11 10:30:55;;;;;;;;;;;;;;;;;;4967643;28;125495;-64
2022/07/11 10:33:22;;;;;;;;;;;;;;;;;;4965596;28;129381;-64
2022/07/11 10:35:49;;;;;;;;;;;;;;;;;;4968007;28;126462;-63
2022/07/11 10:38:16;;;;;;;;;;;;;;;;;;4967069;28;135705;-64
2022/07/11 10:40:43;;;;;;;;;;;;;;;;;;4945060;28;133676;-62
2022/07/11 10:43:09;;;;;;;;;;;;;;;;;;4964994;28;116587;-65
2022/07/11 10:45:35;;;;;;;;;;;;;;;;;;4967201;28;129936;-63
2022/07/11 10:48:02;;;;;;;;;;;;;;;;;;4968277;28;132236;-63
2022/07/11 10:50:28;;;;;;;;;;;;;;;;;;4954040;28;137566;-64
2022/07/11 10:52:55;;;;;;;;;;;;;;;;;;4967462;28;129380;-63
2022/07/11 10:55:21;;;;;;;;;;;;;;;;;;4965879;28;106916;-64
2022/07/11 10:57:49;;;;;;;;;;;;;;;;;;4967350;28;136002;-63
2022/07/11 11:00:16;;;;;;;;;;;;;;;;;;4968956;28;128487;-63
2022/07/11 11:02:42;;;;;;;;;;;;;;;;;;4966699;28;135883;-64
2022/07/11 11:05:09;;;;;;;;;;;;;;;;;;4964526;28;128402;-63
2022/07/11 11:07:35;;;;;;;;;;;;;;;;;;4966888;28;136072;-64
2022/07/11 11:10:02;;;;;;;;;;;;;;;;;;4963226;28;134554;-63
2022/07/11 11:12:28;;;;;;;;;;;;;;;;;;4957990;28;128363;-64
2022/07/11 11:14:54;;;;;;;;;;;;;;;;;;4961189;28;137242;-64
2022/07/11 11:17:21;;;;;;;;;;;;;;;;;;4956944;28;133163;-65
2022/07/11 11:19:47;;;;;;;;;;;;;;;;;;4959936;28;127400;-65
2022/07/11 11:22:13;;;;;;;;;;;;;;;;;;4966026;28;133104;-64
2022/07/11 11:24:40;;;;;;;;;;;;;;;;;;4958675;28;129530;-64
2022/07/11 11:27:26;;;;;;;;;;;;;;;;;;4962288;28;106040;-64
2022/07/11 11:29:52;;;;;;;;;;;;;;;;;;4964644;28;131240;-63
2022/07/11 11:32:25;;;;;;;;;;;;;;;;;;4961204;28;129454;-64
2022/07/11 11:34:52;;;;;;;;;;;;;;;;;;4964777;28;134411;-65
2022/07/11 11:37:18;;;;;;;;;;;;;;;;;;4964495;28;137905;-65
2022/07/11 11:39:44;;;;;;;;;;;;;;;;;;4967671;28;126783;-64
2022/07/11 11:42:11;;;;;;;;;;;;;;;;;;4967744;28;113954;-63
2022/07/11 11:44:37;;;;;;;;;;;;;;;;;;4964417;28;128750;-63
2022/07/11 11:47:03;;;;;;;;;;;;;;;;;;4961321;28;136087;-64
2022/07/11 11:49:29;;;;;;;;;;;;;;;;;;4964878;28;107841;-66
2022/07/11 11:51:56;;;;;;;;;;;;;;;;;;4964800;28;129696;-65
2022/07/11 11:54:23;;;;;;;;;;;;;;;;;;4954506;28;136109;-63
2022/07/11 11:56:49;;;;;;;;;;;;;;;;;;4956315;28;136254;-65
2022/07/11 11:59:15;;;;;;;;;;;;;;;;;;4957947;28;122121;-64
2022/07/11 12:01:43;;;;;;;;;;;;;;;;;;4960289;28;136629;-63
2022/07/11 12:04:10;;;;;;;;;;;;;;;;;;4959333;28;137539;-64
2022/07/11 12:06:36;;;;;;;;;;;;;;;;;;4956953;28;131810;-63
2022/07/11 12:09:02;;;;;;;;;;;;;;;;;;4962176;28;137846;-63
2022/07/11 12:11:29;;;;;;;;;;;;;;;;;;4963090;28;119603;-64
2022/07/11 12:13:55;;;;;;;;;;;;;;;;;;4955458;28;137072;-64
2022/07/11 12:16:41;;;;;;;;;;;;;;;;;;4960310;28;136769;-64
2022/07/11 12:19:09;;;;;;;;;;;;;;;;;;4960942;28;130162;-62
2022/07/11 12:21:35;;;;;;;;;;;;;;;;;;4950560;28;135801;-63
2022/07/11 12:24:02;;;;;;;;;;;;;;;;;;4963170;28;135928;-63
2022/07/11 12:26:29;;;;;;;;;;;;;;;;;;4966162;28;129104;-62
2022/07/11 12:28:55;;;;;;;;;;;;;;;;;;4963120;28;132425;-62
2022/07/11 12:31:21;;;;;;;;;;;;;;;;;;4947961;28;125447;-62
2022/07/11 12:33:48;;;;;;;;;;;;;;;;;;4955105;28;137496;-63
2022/07/11 12:36:14;;;;;;;;;;;;;;;;;;4965218;28;138684;-62
2022/07/11 12:38:40;;;;;;;;;;;;;;;;;;4961337;28;125994;-62
2022/07/11 12:41:07;;;;;;;;;;;;;;;;;;4961693;28;127059;-62
2022/07/11 12:44:57;;;;;;;;;;;;;;;;;;4956722;28;136124;-62
2022/07/11 12:46:19;;;;;;;;;;;;;;;;;;4963481;28;130290;-63
2022/07/11 12:48:46;;;;;;;;;;;;;;;;;;4968840;28;133705;-62
2022/07/11 12:51:12;;;;;;;;;;;;;;;;;;4965410;28;128302;-62
2022/07/11 12:53:38;;;;;;;;;;;;;;;;;;4963826;28;135293;-62
2022/07/11 12:56:04;;;;;;;;;;;;;;;;;;4964683;28;131383;-64
2022/07/11 12:58:31;;;;;;;;;;;;;;;;;;4977686;28;129764;-63
2022/07/11 13:00:57;;;;;;;;;;;;;;;;;;4974729;28;137026;-64
2022/07/11 13:03:24;;;;;;;;;;;;;;;;;;4971631;28;132497;-64
2022/07/11 13:05:56;;;;;;;;;;;;;;;;;;4959561;28;107194;-64
2022/07/11 13:11:07;;;;;;;;;;;;;;;;;;4978928;28;118392;-64
2022/07/11 13:13:34;;;;;;;;;;;;;;;;;;4968923;28;135871;-62
2022/07/11 13:16:03;;;;;;;;;;;;;;;;;;4972059;28;127801;-62
2022/07/11 13:18:29;;;;;;;;;;;;;;;;;;4966194;28;130407;-62
2022/07/11 13:20:56;;;;;;;;;;;;;;;;;;4958359;28;137858;-62
2022/07/11 13:23:22;;;;;;;;;;;;;;;;;;4969214;28;136106;-62
2022/07/11 13:25:49;;;;;;;;;;;;;;;;;;4981211;28;128604;-62
2022/07/11 13:28:19;;;;;;;;;;;;;;;;;;4977488;28;107743;-62
2022/07/11 13:30:46;;;;;;;;;;;;;;;;;;4985786;28;113075;-62
2022/07/11 13:33:32;;;;;;;;;;;;;;;;;;4977578;28;107406;-62
2022/07/11 13:35:59;;;;;;;;;;;;;;;;;;4981778;28;136724;-62
2022/07/11 13:38:26;;;;;;;;;;;;;;;;;;4974968;28;123858;-62
2022/07/11 13:40:52;;;;;;;;;;;;;;;;;;4978155;28;135788;-61
2022/07/11 13:43:18;;;;;;;;;;;;;;;;;;4977002;28;136224;-62
2022/07/11 13:45:46;;;;;;;;;;;;;;;;;;4979389;28;127563;-62
2022/07/11 13:48:13;;;;;;;;;;;;;;;;;;4982010;28;138722;-62
2022/07/11 13:50:40;;;;;;;;;;;;;;;;;;4977709;28;137744;-62
2022/07/11 13:53:06;;;;;;;;;;;;;;;;;;4961465;28;129353;-60
2022/07/11 13:55:32;;;;;;;;;;;;;;;;;;4965383;28;138956;-64
2022/07/11 13:57:59;;;;;;;;;;;;;;;;;;4965038;28;130562;-64
2022/07/11 14:00:25;;;;;;;;;;;;;;;;;;4966262;28;137956;-64
2022/07/11 14:02:51;;;;;;;;;;;;;;;;;;4956516;28;137909;-64
2022/07/11 14:05:18;;;;;;;;;;;;;;;;;;4941793;28;108148;-65
2022/07/11 14:07:44;;;;;;;;;;;;;;;;;;4948961;28;108061;-63
2022/07/11 14:10:11;;;;;;;;;;;;;;;;;;4937080;28;130743;-64
2022/07/11 14:12:38;;;;;;;;;;;;;;;;;;4944470;28;115320;-63
2022/07/11 14:15:04;;;;;;;;;;;;;;;;;;4947612;28;136562;-64
2022/07/11 14:17:30;;;;;;;;;;;;;;;;;;4947369;28;129164;-65
2022/07/11 14:19:57;;;;;;;;;;;;;;;;;;4942639;28;137645;-64
2022/07/11 14:22:23;;;;;;;;;;;;;;;;;;4947475;28;119299;-64
2022/07/11 14:24:49;;;;;;;;;;;;;;;;;;4943801;28;128737;-65
2022/07/11 14:27:15;;;;;;;;;;;;;;;;;;4943669;28;134166;-67
2022/07/11 14:29:42;;;;;;;;;;;;;;;;;;4942679;28;136849;-64
2022/07/11 14:32:08;;;;;;;;;;;;;;;;;;4947027;28;131541;-64
2022/07/11 14:34:34;;;;;;;;;;;;;;;;;;4947507;28;137159;-65
2022/07/11 14:37:01;;;;;;;;;;;;;;;;;;4948671;28;136922;-64
2022/07/11 14:39:27;;;;;;;;;;;;;;;;;;4939017;28;137906;-64
2022/07/11 14:41:53;;;;;;;;;;;;;;;;;;4936147;28;135918;-64
2022/07/11 14:44:26;;;;;;;;;;;;;;;;;;4945056;28;129913;-64
2022/07/11 14:46:52;;;;;;;;;;;;;;;;;;4946561;28;138637;-64
2022/07/11 14:49:19;;;;;;;;;;;;;;;;;;4946208;28;136861;-64
2022/07/11 14:51:45;;;;;;;;;;;;;;;;;;4946237;28;130036;-64
2022/07/11 14:54:21;;;;;;;;;;;;;;;;;;4946723;28;137683;-63
2022/07/11 14:56:48;;;;;;;;;;;;;;;;;;4950940;28;136528;-65
2022/07/11 14:59:14;;;;;;;;;;;;;;;;;;4956938;28;129200;-64
2022/07/11 15:01:40;;;;;;;;;;;;;;;;;;4938644;28;138694;-64
2022/07/11 15:04:07;;;;;;;;;;;;;;;;;;4963567;28;109179;-64
2022/07/11 15:12:24;;;;;;;;;;;;;;;;;;4967009;28;129901;-64
2022/07/11 15:14:51;;;;;;;;;;;;;;;;;;4963365;28;136481;-65
2022/07/11 15:17:17;;;;;;;;;;;;;;;;;;4971097;28;109239;-64
2022/07/11 15:19:43;;;;;;;;;;;;;;;;;;4963614;28;129183;-63
2022/07/11 15:22:10;;;;;;;;;;;;;;;;;;4970843;28;139980;-63
2022/07/11 15:24:36;;;;;;;;;;;;;;;;;;4961208;28;132362;-63
2022/07/11 15:27:03;;;;;;;;;;;;;;;;;;4969136;28;133432;-64
2022/07/11 15:29:29;;;;;;;;;;;;;;;;;;4961812;28;137313;-64
2022/07/11 15:31:56;;;;;;;;;;;;;;;;;;4965725;28;127856;-64
2022/07/11 15:34:22;;;;;;;;;;;;;;;;;;4969267;28;131328;-64
2022/07/11 15:36:48;;;;;;;;;;;;;;;;;;4966705;28;138135;-64
2022/07/11 15:39:15;;;;;;;;;;;;;;;;;;4968581;28;112009;-65
2022/07/11 15:41:42;;;;;;;;;;;;;;;;;;4965742;28;138215;-64
2022/07/11 15:44:08;;;;;;;;;;;;;;;;;;4946471;28;128003;-64
2022/07/11 15:46:35;;;;;;;;;;;;;;;;;;4960400;28;137327;-64
2022/07/11 15:49:01;;;;;;;;;;;;;;;;;;4968243;28;138475;-64
2022/07/11 15:51:28;;;;;;;;;;;;;;;;;;4965792;28;129613;-66
2022/07/11 15:53:55;;;;;;;;;;;;;;;;;;4967457;28;136939;-63
2022/07/11 15:56:21;;;;;;;;;;;;;;;;;;4966841;28;136888;-63
2022/07/11 15:58:48;;;;;;;;;;;;;;;;;;4970239;28;130338;-66
2022/07/11 16:01:14;;;;;;;;;;;;;;;;;;4959152;28;135277;-62
2022/07/11 16:03:40;;;;;;;;;;;;;;;;;;4968078;28;137409;-62
2022/07/11 16:06:07;;;;;;;;;;;;;;;;;;4962904;28;130853;-62
2022/07/11 16:08:33;;;;;;;;;;;;;;;;;;4960512;28;138551;-62
2022/07/11 16:11:00;;;;;;;;;;;;;;;;;;4966506;28;129968;-62
2022/07/11 16:13:26;;;;;;;;;;;;;;;;;;4968844;28;137409;-64
2022/07/11 16:15:52;;;;;;;;;;;;;;;;;;4971710;28;125816;-64
2022/07/11 16:18:19;;;;;;;;;;;;;;;;;;4964195;28;107966;-64
2022/07/11 16:20:46;;;;;;;;;;;;;;;;;;4961314;28;123154;-64
2022/07/11 16:23:12;;;;;;;;;;;;;;;;;;4965580;28;138485;-64
2022/07/11 16:25:38;;;;;;;;;;;;;;;;;;4966865;28;128665;-65
2022/07/11 16:28:05;;;;;;;;;;;;;;;;;;4966949;28;135792;-65
2022/07/11 16:30:38;;;;;;;;;;;;;;;;;;4949227;28;129854;-64
2022/07/11 16:33:04;;;;;;;;;;;;;;;;;;4962864;28;134082;-64
2022/07/11 16:35:31;;;;;;;;;;;;;;;;;;4964340;28;136950;-64
2022/07/11 16:37:58;;;;;;;;;;;;;;;;;;4964417;28;130591;-65
2022/07/11 16:43:21;;;;;;;;;;;;;;;;;;4959591;28;136508;-65
2022/07/11 16:45:48;;;;;;;;;;;;;;;;;;4959101;28;129114;-66
2022/07/11 16:48:16;;;;;;;;;;;;;;;;;;4966042;28;137547;-64